sensor_id;sensor_type;location;lat;lon;timestamp;P1;durP1;ratioP1;P2;durP2;ratioP2
32082;SDS011;18597;48.328;7.932;2023-04-06T00:02:09;6.83;;;6.00;;
32082;SDS011;18597;48.328;7.932;2023-04-06T00:04:35;7.57;;;5.93;;
32082;SDS011;18597;48.328;7.932;2023-04-06T00:07:01;7.50;;;6.77;;
32082;SDS011;18597;48.328;7.932;2023-04-06T00:09:26;6.40;;;5.80;;
32082;SDS011;18597;48.328;7.932;2023-04-06T00:11:52;7.67;;;6.07;;
32082;SDS011;18597;48.328;7.932;2023-04-06T00:14:18;9.40;;;6.63;;
32082;SDS011;18597;48.328;7.932;2023-04-06T00:16:44;9.50;;;4.90;;
32082;SDS011;18597;48.328;7.932;2023-04-06T00:19:10;8.77;;;6.27;;
32082;SDS011;18597;48.328;7.932;2023-04-06T00:21:36;6.10;;;4.87;;
32082;SDS011;18597;48.328;7.932;2023-04-06T00:24:02;7.30;;;5.83;;
32082;SDS011;18597;48.328;7.932;2023-04-06T00:26:28;6.60;;;5.90;;
32082;SDS011;18597;48.328;7.932;2023-04-06T00:28:54;8.00;;;7.20;;
32082;SDS011;18597;48.328;7.932;2023-04-06T00:31:21;6.50;;;5.90;;
32082;SDS011;18597;48.328;7.932;2023-04-06T00:33:47;6.13;;;5.37;;
32082;SDS011;18597;48.328;7.932;2023-04-06T00:36:13;7.20;;;6.60;;
32082;SDS011;18597;48.328;7.932;2023-04-06T00:38:39;6.57;;;5.50;;
32082;SDS011;18597;48.328;7.932;2023-04-06T00:41:05;6.13;;;5.47;;
32082;SDS011;18597;48.328;7.932;2023-04-06T00:43:31;7.03;;;5.67;;
32082;SDS011;18597;48.328;7.932;2023-04-06T00:45:57;7.70;;;5.80;;
32082;SDS011;18597;48.328;7.932;2023-04-06T00:48:23;7.90;;;6.50;;
32082;SDS011;18597;48.328;7.932;2023-04-06T00:50:49;8.50;;;6.50;;
32082;SDS011;18597;48.328;7.932;2023-04-06T00:53:15;5.93;;;5.40;;
32082;SDS011;18597;48.328;7.932;2023-04-06T00:55:41;5.73;;;5.40;;
32082;SDS011;18597;48.328;7.932;2023-04-06T00:58:07;13.40;;;6.43;;
32082;SDS011;18597;48.328;7.932;2023-04-06T01:00:32;6.33;;;5.83;;
32082;SDS011;18597;48.328;7.932;2023-04-06T01:02:58;6.83;;;6.10;;
32082;SDS011;18597;48.328;7.932;2023-04-06T01:05:24;9.87;;;6.47;;
32082;SDS011;18597;48.328;7.932;2023-04-06T01:07:50;6.87;;;6.27;;
32082;SDS011;18597;48.328;7.932;2023-04-06T01:10:24;6.63;;;6.00;;
32082;SDS011;18597;48.328;7.932;2023-04-06T01:12:52;7.17;;;4.80;;
32082;SDS011;18597;48.328;7.932;2023-04-06T01:15:19;9.70;;;6.60;;
32082;SDS011;18597;48.328;7.932;2023-04-06T01:17:46;5.70;;;5.20;;
32082;SDS011;18597;48.328;7.932;2023-04-06T01:20:12;9.27;;;7.10;;
32082;SDS011;18597;48.328;7.932;2023-04-06T01:22:39;8.50;;;6.20;;
32082;SDS011;18597;48.328;7.932;2023-04-06T01:25:05;10.27;;;5.97;;
32082;SDS011;18597;48.328;7.932;2023-04-06T01:27:32;10.27;;;6.40;;
32082;SDS011;18597;48.328;7.932;2023-04-06T01:29:58;10.33;;;5.50;;
32082;SDS011;18597;48.328;7.932;2023-04-06T01:32:24;7.43;;;6.03;;
32082;SDS011;18597;48.328;7.932;2023-04-06T01:34:50;7.03;;;6.20;;
32082;SDS011;18597;48.328;7.932;2023-04-06T01:37:16;10.50;;;7.67;;
32082;SDS011;18597;48.328;7.932;2023-04-06T01:39:42;6.93;;;5.70;;
32082;SDS011;18597;48.328;7.932;2023-04-06T01:42:09;6.80;;;6.20;;
32082;SDS011;18597;48.328;7.932;2023-04-06T01:44:35;7.27;;;6.53;;
32082;SDS011;18597;48.328;7.932;2023-04-06T01:47:02;8.23;;;7.13;;
32082;SDS011;18597;48.328;7.932;2023-04-06T01:49:28;7.50;;;6.30;;
32082;SDS011;18597;48.328;7.932;2023-04-06T01:51:54;10.33;;;6.50;;
32082;SDS011;18597;48.328;7.932;2023-04-06T01:54:20;9.60;;;6.53;;
32082;SDS011;18597;48.328;7.932;2023-04-06T01:56:46;7.07;;;6.47;;
32082;SDS011;18597;48.328;7.932;2023-04-06T01:59:15;9.70;;;7.43;;
32082;SDS011;18597;48.328;7.932;2023-04-06T02:01:40;6.73;;;6.10;;
32082;SDS011;18597;48.328;7.932;2023-04-06T02:04:07;7.00;;;6.30;;
32082;SDS011;18597;48.328;7.932;2023-04-06T02:06:32;7.47;;;6.10;;
32082;SDS011;18597;48.328;7.932;2023-04-06T02:08:58;11.40;;;6.37;;
32082;SDS011;18597;48.328;7.932;2023-04-06T02:11:24;7.77;;;6.90;;
32082;SDS011;18597;48.328;7.932;2023-04-06T02:13:50;10.77;;;5.90;;
32082;SDS011;18597;48.328;7.932;2023-04-06T02:18:45;7.30;;;6.13;;
32082;SDS011;18597;48.328;7.932;2023-04-06T02:21:11;10.13;;;6.60;;
32082;SDS011;18597;48.328;7.932;2023-04-06T02:23:37;6.53;;;5.17;;
32082;SDS011;18597;48.328;7.932;2023-04-06T02:26:03;6.83;;;6.33;;
32082;SDS011;18597;48.328;7.932;2023-04-06T02:28:29;6.80;;;6.10;;
32082;SDS011;18597;48.328;7.932;2023-04-06T02:30:55;7.37;;;6.37;;
32082;SDS011;18597;48.328;7.932;2023-04-06T02:33:21;9.07;;;6.90;;
32082;SDS011;18597;48.328;7.932;2023-04-06T02:35:47;7.70;;;5.83;;
32082;SDS011;18597;48.328;7.932;2023-04-06T02:38:13;9.57;;;6.10;;
32082;SDS011;18597;48.328;7.932;2023-04-06T02:40:39;8.47;;;6.00;;
32082;SDS011;18597;48.328;7.932;2023-04-06T02:43:05;8.20;;;6.47;;
32082;SDS011;18597;48.328;7.932;2023-04-06T02:45:31;6.70;;;6.03;;
32082;SDS011;18597;48.328;7.932;2023-04-06T02:47:57;10.23;;;7.53;;
32082;SDS011;18597;48.328;7.932;2023-04-06T02:50:23;9.20;;;6.07;;
32082;SDS011;18597;48.328;7.932;2023-04-06T02:52:49;7.33;;;6.63;;
32082;SDS011;18597;48.328;7.932;2023-04-06T02:55:15;9.00;;;6.43;;
32082;SDS011;18597;48.328;7.932;2023-04-06T02:57:41;13.60;;;6.40;;
32082;SDS011;18597;48.328;7.932;2023-04-06T03:00:07;9.00;;;7.00;;
32082;SDS011;18597;48.328;7.932;2023-04-06T03:02:33;8.43;;;7.00;;
32082;SDS011;18597;48.328;7.932;2023-04-06T03:04:59;8.40;;;6.73;;
32082;SDS011;18597;48.328;7.932;2023-04-06T03:07:25;9.00;;;6.53;;
32082;SDS011;18597;48.328;7.932;2023-04-06T03:09:51;9.43;;;6.80;;
32082;SDS011;18597;48.328;7.932;2023-04-06T03:12:17;6.53;;;6.13;;
32082;SDS011;18597;48.328;7.932;2023-04-06T03:14:43;8.67;;;6.90;;
32082;SDS011;18597;48.328;7.932;2023-04-06T03:17:09;17.80;;;6.40;;
32082;SDS011;18597;48.328;7.932;2023-04-06T03:19:36;7.10;;;6.30;;
32082;SDS011;18597;48.328;7.932;2023-04-06T03:22:02;9.20;;;6.67;;
32082;SDS011;18597;48.328;7.932;2023-04-06T03:24:27;8.47;;;6.50;;
32082;SDS011;18597;48.328;7.932;2023-04-06T03:26:53;5.97;;;5.50;;
32082;SDS011;18597;48.328;7.932;2023-04-06T03:29:20;7.40;;;6.73;;
32082;SDS011;18597;48.328;7.932;2023-04-06T03:31:46;9.33;;;6.83;;
32082;SDS011;18597;48.328;7.932;2023-04-06T03:34:11;7.53;;;6.40;;
32082;SDS011;18597;48.328;7.932;2023-04-06T03:36:37;9.30;;;7.47;;
32082;SDS011;18597;48.328;7.932;2023-04-06T03:39:03;13.13;;;11.40;;
32082;SDS011;18597;48.328;7.932;2023-04-06T03:41:30;14.50;;;10.57;;
32082;SDS011;18597;48.328;7.932;2023-04-06T03:43:56;13.73;;;7.90;;
32082;SDS011;18597;48.328;7.932;2023-04-06T03:46:22;7.63;;;6.77;;
32082;SDS011;18597;48.328;7.932;2023-04-06T03:48:48;6.50;;;5.80;;
32082;SDS011;18597;48.328;7.932;2023-04-06T03:51:14;9.00;;;7.47;;
32082;SDS011;18597;48.328;7.932;2023-04-06T03:53:40;9.63;;;6.60;;
32082;SDS011;18597;48.328;7.932;2023-04-06T03:56:06;7.90;;;7.10;;
32082;SDS011;18597;48.328;7.932;2023-04-06T03:58:32;9.47;;;7.03;;
32082;SDS011;18597;48.328;7.932;2023-04-06T04:00:57;12.40;;;8.30;;
32082;SDS011;18597;48.328;7.932;2023-04-06T04:03:23;16.03;;;9.90;;
32082;SDS011;18597;48.328;7.932;2023-04-06T04:05:51;19.47;;;13.70;;
32082;SDS011;18597;48.328;7.932;2023-04-06T04:08:18;52.77;;;30.50;;
32082;SDS011;18597;48.328;7.932;2023-04-06T04:10:43;52.70;;;32.53;;
32082;SDS011;18597;48.328;7.932;2023-04-06T04:13:09;24.60;;;18.07;;
32082;SDS011;18597;48.328;7.932;2023-04-06T04:15:35;25.40;;;19.50;;
32082;SDS011;18597;48.328;7.932;2023-04-06T04:18:01;18.03;;;15.10;;
32082;SDS011;18597;48.328;7.932;2023-04-06T04:20:27;14.60;;;13.07;;
32082;SDS011;18597;48.328;7.932;2023-04-06T04:22:53;13.37;;;10.40;;
32082;SDS011;18597;48.328;7.932;2023-04-06T04:25:19;9.07;;;8.20;;
32082;SDS011;18597;48.328;7.932;2023-04-06T04:27:45;8.07;;;7.30;;
32082;SDS011;18597;48.328;7.932;2023-04-06T04:30:11;12.70;;;8.07;;
32082;SDS011;18597;48.328;7.932;2023-04-06T04:32:37;9.87;;;8.53;;
32082;SDS011;18597;48.328;7.932;2023-04-06T04:35:03;13.27;;;8.33;;
32082;SDS011;18597;48.328;7.932;2023-04-06T04:37:29;10.87;;;7.60;;
32082;SDS011;18597;48.328;7.932;2023-04-06T04:39:55;9.63;;;7.13;;
32082;SDS011;18597;48.328;7.932;2023-04-06T04:42:20;10.23;;;8.43;;
32082;SDS011;18597;48.328;7.932;2023-04-06T04:44:46;12.80;;;7.13;;
32082;SDS011;18597;48.328;7.932;2023-04-06T04:47:12;7.73;;;7.10;;
32082;SDS011;18597;48.328;7.932;2023-04-06T04:49:38;9.80;;;8.73;;
32082;SDS011;18597;48.328;7.932;2023-04-06T04:52:04;18.40;;;7.57;;
32082;SDS011;18597;48.328;7.932;2023-04-06T04:54:30;11.38;;;9.25;;
32082;SDS011;18597;48.328;7.932;2023-04-06T04:56:56;8.27;;;7.43;;
32082;SDS011;18597;48.328;7.932;2023-04-06T04:59:27;8.87;;;7.33;;
32082;SDS011;18597;48.328;7.932;2023-04-06T05:01:57;8.60;;;7.73;;
32082;SDS011;18597;48.328;7.932;2023-04-06T05:04:23;10.67;;;7.70;;
32082;SDS011;18597;48.328;7.932;2023-04-06T05:06:49;7.93;;;7.33;;
32082;SDS011;18597;48.328;7.932;2023-04-06T05:09:15;12.67;;;9.37;;
32082;SDS011;18597;48.328;7.932;2023-04-06T05:11:40;17.00;;;8.90;;
32082;SDS011;18597;48.328;7.932;2023-04-06T05:14:06;13.57;;;8.03;;
32082;SDS011;18597;48.328;7.932;2023-04-06T05:16:33;8.30;;;7.47;;
32082;SDS011;18597;48.328;7.932;2023-04-06T05:18:59;14.23;;;7.80;;
32082;SDS011;18597;48.328;7.932;2023-04-06T05:21:25;8.53;;;7.53;;
32082;SDS011;18597;48.328;7.932;2023-04-06T05:23:53;9.60;;;7.20;;
32082;SDS011;18597;48.328;7.932;2023-04-06T05:26:18;15.13;;;7.57;;
32082;SDS011;18597;48.328;7.932;2023-04-06T05:28:45;18.93;;;8.47;;
32082;SDS011;18597;48.328;7.932;2023-04-06T05:31:11;9.40;;;7.80;;
32082;SDS011;18597;48.328;7.932;2023-04-06T05:33:36;13.60;;;8.43;;
32082;SDS011;18597;48.328;7.932;2023-04-06T05:36:02;16.63;;;8.93;;
32082;SDS011;18597;48.328;7.932;2023-04-06T05:38:30;11.87;;;7.40;;
32082;SDS011;18597;48.328;7.932;2023-04-06T05:40:58;14.70;;;8.30;;
32082;SDS011;18597;48.328;7.932;2023-04-06T05:43:24;18.00;;;10.63;;
32082;SDS011;18597;48.328;7.932;2023-04-06T05:45:50;11.00;;;6.30;;
32082;SDS011;18597;48.328;7.932;2023-04-06T05:48:16;18.10;;;10.40;;
32082;SDS011;18597;48.328;7.932;2023-04-06T05:50:41;11.00;;;9.27;;
32082;SDS011;18597;48.328;7.932;2023-04-06T05:53:07;17.43;;;10.33;;
32082;SDS011;18597;48.328;7.932;2023-04-06T05:55:33;12.23;;;9.07;;
32082;SDS011;18597;48.328;7.932;2023-04-06T05:57:59;10.47;;;8.10;;
32082;SDS011;18597;48.328;7.932;2023-04-06T06:00:25;10.30;;;9.07;;
32082;SDS011;18597;48.328;7.932;2023-04-06T06:02:51;13.10;;;8.20;;
32082;SDS011;18597;48.328;7.932;2023-04-06T06:05:17;9.90;;;7.87;;
32082;SDS011;18597;48.328;7.932;2023-04-06T06:07:42;8.57;;;7.70;;
32082;SDS011;18597;48.328;7.932;2023-04-06T06:10:08;8.20;;;7.50;;
32082;SDS011;18597;48.328;7.932;2023-04-06T06:12:35;9.70;;;7.53;;
32082;SDS011;18597;48.328;7.932;2023-04-06T06:15:01;14.37;;;7.20;;
32082;SDS011;18597;48.328;7.932;2023-04-06T06:17:27;6.80;;;6.20;;
32082;SDS011;18597;48.328;7.932;2023-04-06T06:19:53;7.10;;;6.53;;
32082;SDS011;18597;48.328;7.932;2023-04-06T06:22:19;12.63;;;7.57;;
32082;SDS011;18597;48.328;7.932;2023-04-06T06:24:45;14.07;;;9.47;;
32082;SDS011;18597;48.328;7.932;2023-04-06T06:27:11;14.77;;;11.07;;
32082;SDS011;18597;48.328;7.932;2023-04-06T06:29:37;13.13;;;9.10;;
32082;SDS011;18597;48.328;7.932;2023-04-06T06:32:03;12.17;;;8.53;;
32082;SDS011;18597;48.328;7.932;2023-04-06T06:34:29;12.00;;;8.80;;
32082;SDS011;18597;48.328;7.932;2023-04-06T06:36:55;10.37;;;9.37;;
32082;SDS011;18597;48.328;7.932;2023-04-06T06:39:21;14.80;;;7.30;;
32082;SDS011;18597;48.328;7.932;2023-04-06T06:41:47;11.30;;;7.17;;
32082;SDS011;18597;48.328;7.932;2023-04-06T06:44:13;18.03;;;9.93;;
32082;SDS011;18597;48.328;7.932;2023-04-06T06:46:39;7.87;;;7.13;;
32082;SDS011;18597;48.328;7.932;2023-04-06T06:49:05;12.27;;;10.37;;
32082;SDS011;18597;48.328;7.932;2023-04-06T06:51:31;46.37;;;22.30;;
32082;SDS011;18597;48.328;7.932;2023-04-06T06:53:57;11.60;;;7.57;;
32082;SDS011;18597;48.328;7.932;2023-04-06T06:56:22;7.43;;;6.27;;
32082;SDS011;18597;48.328;7.932;2023-04-06T06:58:48;4.60;;;4.30;;
32082;SDS011;18597;48.328;7.932;2023-04-06T07:01:14;5.13;;;4.93;;
32082;SDS011;18597;48.328;7.932;2023-04-06T07:03:40;5.50;;;5.10;;
32082;SDS011;18597;48.328;7.932;2023-04-06T07:06:06;7.90;;;6.57;;
32082;SDS011;18597;48.328;7.932;2023-04-06T07:08:32;7.50;;;6.00;;
32082;SDS011;18597;48.328;7.932;2023-04-06T07:10:57;12.90;;;6.53;;
32082;SDS011;18597;48.328;7.932;2023-04-06T07:13:23;6.07;;;5.47;;
32082;SDS011;18597;48.328;7.932;2023-04-06T07:15:51;6.43;;;6.00;;
32082;SDS011;18597;48.328;7.932;2023-04-06T07:18:18;8.63;;;6.80;;
32082;SDS011;18597;48.328;7.932;2023-04-06T07:20:45;6.70;;;6.10;;
32082;SDS011;18597;48.328;7.932;2023-04-06T07:23:11;8.50;;;5.13;;
32082;SDS011;18597;48.328;7.932;2023-04-06T07:25:37;5.20;;;4.80;;
32082;SDS011;18597;48.328;7.932;2023-04-06T07:28:03;4.97;;;4.67;;
32082;SDS011;18597;48.328;7.932;2023-04-06T07:30:30;9.70;;;9.00;;
32082;SDS011;18597;48.328;7.932;2023-04-06T07:32:56;5.20;;;4.90;;
32082;SDS011;18597;48.328;7.932;2023-04-06T07:35:24;4.80;;;4.40;;
32082;SDS011;18597;48.328;7.932;2023-04-06T07:37:52;6.67;;;4.80;;
32082;SDS011;18597;48.328;7.932;2023-04-06T07:40:18;5.60;;;5.23;;
32082;SDS011;18597;48.328;7.932;2023-04-06T07:42:45;5.60;;;5.20;;
32082;SDS011;18597;48.328;7.932;2023-04-06T07:45:11;4.27;;;4.07;;
32082;SDS011;18597;48.328;7.932;2023-04-06T07:47:37;7.70;;;4.80;;
32082;SDS011;18597;48.328;7.932;2023-04-06T07:50:03;5.30;;;4.90;;
32082;SDS011;18597;48.328;7.932;2023-04-06T07:52:30;6.00;;;5.50;;
32082;SDS011;18597;48.328;7.932;2023-04-06T07:54:57;5.27;;;4.97;;
32082;SDS011;18597;48.328;7.932;2023-04-06T07:57:24;5.63;;;5.20;;
32082;SDS011;18597;48.328;7.932;2023-04-06T07:59:50;4.87;;;4.63;;
32082;SDS011;18597;48.328;7.932;2023-04-06T08:02:16;4.60;;;4.40;;
32082;SDS011;18597;48.328;7.932;2023-04-06T08:04:43;5.00;;;4.80;;
32082;SDS011;18597;48.328;7.932;2023-04-06T08:07:09;5.17;;;4.90;;
32082;SDS011;18597;48.328;7.932;2023-04-06T08:09:35;4.50;;;4.40;;
32082;SDS011;18597;48.328;7.932;2023-04-06T08:12:01;4.63;;;4.37;;
32082;SDS011;18597;48.328;7.932;2023-04-06T08:14:27;3.93;;;3.83;;
32082;SDS011;18597;48.328;7.932;2023-04-06T08:16:53;5.40;;;4.40;;
32082;SDS011;18597;48.328;7.932;2023-04-06T08:19:19;4.00;;;3.90;;
32082;SDS011;18597;48.328;7.932;2023-04-06T08:21:45;4.40;;;4.10;;
32082;SDS011;18597;48.328;7.932;2023-04-06T08:24:12;7.70;;;7.10;;
32082;SDS011;18597;48.328;7.932;2023-04-06T08:26:39;5.60;;;4.70;;
32082;SDS011;18597;48.328;7.932;2023-04-06T08:29:05;3.53;;;3.33;;
32082;SDS011;18597;48.328;7.932;2023-04-06T08:31:34;5.67;;;5.20;;
32082;SDS011;18597;48.328;7.932;2023-04-06T08:34:00;5.80;;;4.37;;
32082;SDS011;18597;48.328;7.932;2023-04-06T08:36:29;4.00;;;3.90;;
32082;SDS011;18597;48.328;7.932;2023-04-06T08:38:56;4.77;;;4.47;;
32082;SDS011;18597;48.328;7.932;2023-04-06T08:41:22;4.27;;;4.07;;
32082;SDS011;18597;48.328;7.932;2023-04-06T08:43:49;5.90;;;5.50;;
32082;SDS011;18597;48.328;7.932;2023-04-06T08:46:21;4.63;;;4.30;;
32082;SDS011;18597;48.328;7.932;2023-04-06T08:48:53;5.20;;;4.70;;
32082;SDS011;18597;48.328;7.932;2023-04-06T08:51:23;7.37;;;6.57;;
32082;SDS011;18597;48.328;7.932;2023-04-06T08:53:51;7.17;;;5.70;;
32082;SDS011;18597;48.328;7.932;2023-04-06T08:56:20;9.13;;;6.30;;
32082;SDS011;18597;48.328;7.932;2023-04-06T08:58:48;6.53;;;6.03;;
32082;SDS011;18597;48.328;7.932;2023-04-06T09:01:14;7.23;;;6.27;;
32082;SDS011;18597;48.328;7.932;2023-04-06T09:03:43;45.30;;;24.10;;
32082;SDS011;18597;48.328;7.932;2023-04-06T09:06:11;25.90;;;14.47;;
32082;SDS011;18597;48.328;7.932;2023-04-06T09:08:39;21.53;;;13.80;;
32082;SDS011;18597;48.328;7.932;2023-04-06T09:11:06;56.10;;;30.87;;
32082;SDS011;18597;48.328;7.932;2023-04-06T09:13:49;12.53;;;6.60;;
32082;SDS011;18597;48.328;7.932;2023-04-06T09:16:17;10.73;;;7.00;;
32082;SDS011;18597;48.328;7.932;2023-04-06T09:18:45;16.33;;;8.93;;
32082;SDS011;18597;48.328;7.932;2023-04-06T09:21:12;6.97;;;6.33;;
32082;SDS011;18597;48.328;7.932;2023-04-06T09:23:42;8.43;;;7.63;;
32082;SDS011;18597;48.328;7.932;2023-04-06T09:26:10;10.63;;;7.13;;
32082;SDS011;18597;48.328;7.932;2023-04-06T09:31:22;11.27;;;7.67;;
32082;SDS011;18597;48.328;7.932;2023-04-06T09:33:50;10.97;;;6.30;;
32082;SDS011;18597;48.328;7.932;2023-04-06T09:36:17;6.63;;;5.97;;
32082;SDS011;18597;48.328;7.932;2023-04-06T09:38:51;10.53;;;7.17;;
32082;SDS011;18597;48.328;7.932;2023-04-06T09:41:29;6.67;;;5.33;;
32082;SDS011;18597;48.328;7.932;2023-04-06T09:44:03;13.30;;;9.50;;
32082;SDS011;18597;48.328;7.932;2023-04-06T09:46:33;10.93;;;7.90;;
32082;SDS011;18597;48.328;7.932;2023-04-06T09:49:04;7.07;;;6.37;;
32082;SDS011;18597;48.328;7.932;2023-04-06T09:51:36;7.83;;;5.33;;
32082;SDS011;18597;48.328;7.932;2023-04-06T09:54:04;5.63;;;5.03;;
32082;SDS011;18597;48.328;7.932;2023-04-06T09:56:37;10.30;;;6.53;;
32082;SDS011;18597;48.328;7.932;2023-04-06T09:59:13;7.90;;;7.10;;
32082;SDS011;18597;48.328;7.932;2023-04-06T10:01:51;6.50;;;5.87;;
32082;SDS011;18597;48.328;7.932;2023-04-06T10:04:25;6.23;;;5.63;;
32082;SDS011;18597;48.328;7.932;2023-04-06T10:07:02;8.07;;;5.60;;
32082;SDS011;18597;48.328;7.932;2023-04-06T10:09:30;5.57;;;5.27;;
32082;SDS011;18597;48.328;7.932;2023-04-06T10:12:02;9.60;;;5.13;;
32082;SDS011;18597;48.328;7.932;2023-04-06T10:14:31;22.53;;;11.93;;
32082;SDS011;18597;48.328;7.932;2023-04-06T10:17:02;5.07;;;4.77;;
32082;SDS011;18597;48.328;7.932;2023-04-06T10:19:34;6.57;;;5.97;;
32082;SDS011;18597;48.328;7.932;2023-04-06T10:22:25;6.33;;;5.13;;
32082;SDS011;18597;48.328;7.932;2023-04-06T10:25:01;6.80;;;5.90;;
32082;SDS011;18597;48.328;7.932;2023-04-06T10:27:28;6.60;;;5.77;;
32082;SDS011;18597;48.328;7.932;2023-04-06T10:30:00;6.50;;;6.03;;
32082;SDS011;18597;48.328;7.932;2023-04-06T10:32:33;5.67;;;4.87;;
32082;SDS011;18597;48.328;7.932;2023-04-06T10:35:05;7.00;;;6.20;;
32082;SDS011;18597;48.328;7.932;2023-04-06T10:37:49;7.07;;;6.37;;
32082;SDS011;18597;48.328;7.932;2023-04-06T10:40:19;11.17;;;8.83;;
32082;SDS011;18597;48.328;7.932;2023-04-06T10:42:51;8.80;;;6.70;;
32082;SDS011;18597;48.328;7.932;2023-04-06T10:45:23;14.50;;;8.00;;
32082;SDS011;18597;48.328;7.932;2023-04-06T10:47:52;10.27;;;7.80;;
32082;SDS011;18597;48.328;7.932;2023-04-06T10:50:19;11.03;;;8.37;;
32082;SDS011;18597;48.328;7.932;2023-04-06T10:52:45;6.97;;;6.37;;
32082;SDS011;18597;48.328;7.932;2023-04-06T10:55:23;10.30;;;7.60;;
32082;SDS011;18597;48.328;7.932;2023-04-06T10:57:49;9.97;;;7.27;;
32082;SDS011;18597;48.328;7.932;2023-04-06T11:00:16;7.80;;;6.90;;
32082;SDS011;18597;48.328;7.932;2023-04-06T11:02:44;8.60;;;6.80;;
32082;SDS011;18597;48.328;7.932;2023-04-06T11:05:10;7.37;;;6.63;;
32082;SDS011;18597;48.328;7.932;2023-04-06T11:07:38;10.50;;;6.97;;
32082;SDS011;18597;48.328;7.932;2023-04-06T11:10:05;7.10;;;6.37;;
32082;SDS011;18597;48.328;7.932;2023-04-06T11:12:33;7.00;;;6.30;;
32082;SDS011;18597;48.328;7.932;2023-04-06T11:15:00;7.17;;;6.47;;
32082;SDS011;18597;48.328;7.932;2023-04-06T11:17:29;9.97;;;6.80;;
32082;SDS011;18597;48.328;7.932;2023-04-06T11:20:01;8.13;;;7.03;;
32082;SDS011;18597;48.328;7.932;2023-04-06T11:22:29;10.40;;;6.90;;
32082;SDS011;18597;48.328;7.932;2023-04-06T11:25:11;7.07;;;6.00;;
32082;SDS011;18597;48.328;7.932;2023-04-06T11:27:38;7.43;;;5.40;;
32082;SDS011;18597;48.328;7.932;2023-04-06T11:30:05;10.43;;;6.43;;
32082;SDS011;18597;48.328;7.932;2023-04-06T11:32:39;6.70;;;5.50;;
32082;SDS011;18597;48.328;7.932;2023-04-06T11:35:10;8.80;;;6.40;;
32082;SDS011;18597;48.328;7.932;2023-04-06T11:38:05;5.07;;;4.63;;
32082;SDS011;18597;48.328;7.932;2023-04-06T11:40:31;6.40;;;5.80;;
32082;SDS011;18597;48.328;7.932;2023-04-06T11:42:58;11.07;;;6.47;;
32082;SDS011;18597;48.328;7.932;2023-04-06T11:45:23;10.70;;;6.63;;
32082;SDS011;18597;48.328;7.932;2023-04-06T11:47:57;8.63;;;7.50;;
32082;SDS011;18597;48.328;7.932;2023-04-06T11:53:21;7.00;;;6.30;;
32082;SDS011;18597;48.328;7.932;2023-04-06T11:55:47;6.67;;;5.67;;
32082;SDS011;18597;48.328;7.932;2023-04-06T11:58:12;5.50;;;5.10;;
32082;SDS011;18597;48.328;7.932;2023-04-06T12:01:02;7.13;;;6.40;;
32082;SDS011;18597;48.328;7.932;2023-04-06T12:03:29;8.03;;;6.87;;
32082;SDS011;18597;48.328;7.932;2023-04-06T12:05:55;6.10;;;5.23;;
32082;SDS011;18597;48.328;7.932;2023-04-06T12:08:21;6.33;;;5.73;;
32082;SDS011;18597;48.328;7.932;2023-04-06T12:10:50;6.37;;;5.77;;
32082;SDS011;18597;48.328;7.932;2023-04-06T12:13:17;13.43;;;6.23;;
32082;SDS011;18597;48.328;7.932;2023-04-06T12:15:43;9.07;;;6.67;;
32082;SDS011;18597;48.328;7.932;2023-04-06T12:18:09;6.23;;;5.70;;
32082;SDS011;18597;48.328;7.932;2023-04-06T12:20:35;4.60;;;4.30;;
32082;SDS011;18597;48.328;7.932;2023-04-06T12:23:01;5.13;;;4.73;;
32082;SDS011;18597;48.328;7.932;2023-04-06T12:28:42;6.43;;;5.67;;
32082;SDS011;18597;48.328;7.932;2023-04-06T12:31:14;5.37;;;4.97;;
32082;SDS011;18597;48.328;7.932;2023-04-06T12:33:41;6.43;;;5.60;;
32082;SDS011;18597;48.328;7.932;2023-04-06T12:36:11;6.70;;;6.00;;
32082;SDS011;18597;48.328;7.932;2023-04-06T12:38:39;8.23;;;5.40;;
32082;SDS011;18597;48.328;7.932;2023-04-06T12:41:06;6.30;;;5.60;;
32082;SDS011;18597;48.328;7.932;2023-04-06T12:43:32;6.93;;;6.30;;
32082;SDS011;18597;48.328;7.932;2023-04-06T12:45:58;6.30;;;5.73;;
32082;SDS011;18597;48.328;7.932;2023-04-06T12:48:25;6.73;;;6.03;;
32082;SDS011;18597;48.328;7.932;2023-04-06T12:50:54;9.97;;;6.73;;
32082;SDS011;18597;48.328;7.932;2023-04-06T12:53:32;9.97;;;6.63;;
32082;SDS011;18597;48.328;7.932;2023-04-06T12:56:00;8.40;;;6.13;;
32082;SDS011;18597;48.328;7.932;2023-04-06T12:58:27;7.73;;;6.93;;
32082;SDS011;18597;48.328;7.932;2023-04-06T13:00:54;6.40;;;5.80;;
32082;SDS011;18597;48.328;7.932;2023-04-06T13:06:12;7.67;;;6.30;;
32082;SDS011;18597;48.328;7.932;2023-04-06T13:08:39;8.03;;;7.30;;
32082;SDS011;18597;48.328;7.932;2023-04-06T13:11:06;8.23;;;6.80;;
32082;SDS011;18597;48.328;7.932;2023-04-06T13:13:33;6.70;;;6.10;;
32082;SDS011;18597;48.328;7.932;2023-04-06T13:16:00;8.53;;;6.40;;
32082;SDS011;18597;48.328;7.932;2023-04-06T13:18:29;8.17;;;7.37;;
32082;SDS011;18597;48.328;7.932;2023-04-06T13:20:57;12.23;;;7.13;;
32082;SDS011;18597;48.328;7.932;2023-04-06T13:23:24;6.23;;;5.63;;
32082;SDS011;18597;48.328;7.932;2023-04-06T13:26:06;9.33;;;6.50;;
32082;SDS011;18597;48.328;7.932;2023-04-06T13:28:33;7.50;;;6.80;;
32082;SDS011;18597;48.328;7.932;2023-04-06T13:31:03;6.40;;;5.90;;
32082;SDS011;18597;48.328;7.932;2023-04-06T13:33:30;6.77;;;6.17;;
32082;SDS011;18597;48.328;7.932;2023-04-06T13:35:56;6.70;;;6.10;;
32082;SDS011;18597;48.328;7.932;2023-04-06T13:38:23;8.13;;;6.33;;
32082;SDS011;18597;48.328;7.932;2023-04-06T13:40:49;6.60;;;5.10;;
32082;SDS011;18597;48.328;7.932;2023-04-06T13:43:15;13.43;;;7.53;;
32082;SDS011;18597;48.328;7.932;2023-04-06T13:48:35;7.20;;;6.50;;
32082;SDS011;18597;48.328;7.932;2023-04-06T13:51:16;7.13;;;6.43;;
32082;SDS011;18597;48.328;7.932;2023-04-06T13:53:42;8.47;;;7.07;;
32082;SDS011;18597;48.328;7.932;2023-04-06T13:56:07;6.70;;;6.20;;
32082;SDS011;18597;48.328;7.932;2023-04-06T13:58:34;8.50;;;6.57;;
32082;SDS011;18597;48.328;7.932;2023-04-06T14:01:01;8.00;;;7.30;;
32082;SDS011;18597;48.328;7.932;2023-04-06T14:03:31;7.27;;;6.47;;
32082;SDS011;18597;48.328;7.932;2023-04-06T14:05:57;8.63;;;6.87;;
32082;SDS011;18597;48.328;7.932;2023-04-06T14:08:23;8.40;;;7.07;;
32082;SDS011;18597;48.328;7.932;2023-04-06T14:10:48;7.70;;;6.10;;
32082;SDS011;18597;48.328;7.932;2023-04-06T14:13:14;6.50;;;6.00;;
32082;SDS011;18597;48.328;7.932;2023-04-06T14:21:23;7.60;;;6.90;;
32082;SDS011;18597;48.328;7.932;2023-04-06T14:23:49;13.43;;;6.87;;
32082;SDS011;18597;48.328;7.932;2023-04-06T14:26:15;10.10;;;7.23;;
32082;SDS011;18597;48.328;7.932;2023-04-06T14:28:41;7.83;;;6.73;;
32082;SDS011;18597;48.328;7.932;2023-04-06T14:31:11;9.00;;;7.10;;
32082;SDS011;18597;48.328;7.932;2023-04-06T14:33:40;8.20;;;6.83;;
32082;SDS011;18597;48.328;7.932;2023-04-06T14:36:07;11.63;;;7.53;;
32082;SDS011;18597;48.328;7.932;2023-04-06T14:38:34;8.53;;;6.10;;
32082;SDS011;18597;48.328;7.932;2023-04-06T14:41:00;10.90;;;8.30;;
32082;SDS011;18597;48.328;7.932;2023-04-06T14:43:26;7.83;;;7.10;;
32082;SDS011;18597;48.328;7.932;2023-04-06T14:45:52;12.40;;;7.20;;
32082;SDS011;18597;48.328;7.932;2023-04-06T14:48:18;16.20;;;6.77;;
32082;SDS011;18597;48.328;7.932;2023-04-06T14:50:52;6.43;;;5.83;;
32082;SDS011;18597;48.328;7.932;2023-04-06T14:53:19;6.70;;;6.10;;
32082;SDS011;18597;48.328;7.932;2023-04-06T14:55:44;6.10;;;5.50;;
32082;SDS011;18597;48.328;7.932;2023-04-06T14:58:10;6.53;;;5.57;;
32082;SDS011;18597;48.328;7.932;2023-04-06T15:00:37;11.67;;;6.13;;
32082;SDS011;18597;48.328;7.932;2023-04-06T15:03:04;9.73;;;6.47;;
32082;SDS011;18597;48.328;7.932;2023-04-06T15:05:30;9.47;;;6.70;;
32082;SDS011;18597;48.328;7.932;2023-04-06T15:07:58;9.00;;;5.83;;